createdAt,value
2017-07-04T00:01:47.233Z,16.00
2017-07-04T00:04:15.536Z,22.43
2017-07-04T00:06:43.070Z,21.40
2017-07-04T00:09:11.338Z,16.83
2017-07-04T00:11:39.577Z,16.57
2017-07-04T00:14:07.038Z,18.80
2017-07-04T00:16:34.489Z,16.00
2017-07-04T00:19:01.969Z,25.07
2017-07-04T00:21:29.436Z,22.33
2017-07-04T00:23:56.923Z,17.13
2017-07-04T00:26:24.442Z,22.53
2017-07-04T00:28:51.914Z,16.90
2017-07-04T00:31:20.174Z,18.63
2017-07-04T00:33:47.637Z,19.33
2017-07-04T00:36:15.183Z,23.33
2017-07-04T00:38:42.696Z,25.30
2017-07-04T00:41:10.148Z,18.50
2017-07-04T00:43:37.597Z,18.77
2017-07-04T00:46:05.082Z,20.83
2017-07-04T00:48:32.554Z,22.03
2017-07-04T00:51:00.091Z,23.20
2017-07-04T00:53:27.600Z,13.03
2017-07-04T00:55:55.151Z,20.63
2017-07-04T00:58:22.601Z,18.20
2017-07-04T01:00:50.167Z,15.70
2017-07-04T01:03:17.726Z,19.13
2017-07-04T01:08:19.886Z,18.67
2017-07-04T01:10:47.362Z,18.37
2017-07-04T01:13:14.814Z,31.33
2017-07-04T01:15:42.278Z,21.87
2017-07-04T01:18:09.837Z,17.40
2017-07-04T01:20:37.341Z,15.43
2017-07-04T01:23:04.818Z,28.83
2017-07-04T01:25:32.283Z,25.13
2017-07-04T01:27:59.775Z,20.20
2017-07-04T01:30:28.014Z,17.87
2017-07-04T01:32:55.498Z,17.20
2017-07-04T01:35:22.971Z,19.70
2017-07-04T01:37:51.242Z,35.23
2017-07-04T01:40:18.786Z,23.97
2017-07-04T01:42:46.238Z,19.87
2017-07-04T01:45:13.698Z,18.63
2017-07-04T01:47:41.172Z,16.93
2017-07-04T01:50:09.391Z,23.83
2017-07-04T01:52:36.967Z,18.73
2017-07-04T01:55:04.451Z,25.50
2017-07-04T01:57:31.930Z,16.97
2017-07-04T02:00:00.166Z,29.90
2017-07-04T02:02:27.750Z,20.87
2017-07-04T02:04:56.034Z,27.73
2017-07-04T02:07:24.290Z,24.60
2017-07-04T02:09:51.802Z,17.53
2017-07-04T02:12:19.260Z,23.90
2017-07-04T02:14:46.717Z,25.47
2017-07-04T02:17:14.218Z,20.90
2017-07-04T02:19:41.684Z,19.50
2017-07-04T02:22:09.154Z,18.27
2017-07-04T02:24:37.423Z,25.10
2017-07-04T02:27:05.695Z,25.63
2017-07-04T02:29:33.920Z,19.70
2017-07-04T02:32:01.401Z,22.67
2017-07-04T02:34:28.930Z,22.37
2017-07-04T02:36:56.385Z,28.20
2017-07-04T02:39:23.873Z,28.23
2017-07-04T02:41:51.334Z,24.73
2017-07-04T02:44:18.867Z,22.90
2017-07-04T02:46:46.344Z,26.83
2017-07-04T02:49:13.876Z,17.63
2017-07-04T02:51:41.370Z,21.20
2017-07-04T02:54:08.850Z,25.73
2017-07-04T02:56:36.391Z,26.80
2017-07-04T02:59:03.890Z,23.10
2017-07-04T03:01:31.366Z,19.77
2017-07-04T03:03:58.826Z,15.07
2017-07-04T03:06:26.314Z,27.07
2017-07-04T03:08:53.795Z,20.27
2017-07-04T03:11:22.027Z,22.90
2017-07-04T03:13:49.502Z,20.93
2017-07-04T03:16:17.122Z,25.30
2017-07-04T03:18:44.566Z,20.27
2017-07-04T03:21:12.015Z,24.60
2017-07-04T03:23:39.487Z,24.03
2017-07-04T03:26:07.090Z,29.93
2017-07-04T03:28:34.554Z,21.30
2017-07-04T03:31:02.032Z,24.30
2017-07-04T03:33:30.267Z,25.67
2017-07-04T03:35:57.736Z,20.40
2017-07-04T03:38:25.294Z,21.17
2017-07-04T03:40:52.774Z,31.30
2017-07-04T03:43:21.068Z,20.20
2017-07-04T03:45:48.525Z,27.17
2017-07-04T03:48:15.984Z,22.60
2017-07-04T03:50:43.541Z,17.40
2017-07-04T03:53:11.015Z,21.37
2017-07-04T03:55:38.511Z,23.30
2017-07-04T03:58:05.967Z,20.23
2017-07-04T04:00:33.449Z,19.17
2017-07-04T04:03:00.993Z,15.23
2017-07-04T04:05:28.451Z,23.70
2017-07-04T04:07:56.687Z,23.30
2017-07-04T04:10:24.202Z,21.00
2017-07-04T04:12:51.735Z,27.53
2017-07-04T04:15:19.573Z,22.13
2017-07-04T04:17:47.061Z,18.70
2017-07-04T04:20:15.295Z,16.63
2017-07-04T04:22:42.774Z,22.40
2017-07-04T04:25:10.246Z,20.60
2017-07-04T04:27:37.814Z,15.63
2017-07-04T04:30:05.370Z,20.50
2017-07-04T04:32:32.930Z,24.67
2017-07-04T04:35:00.389Z,26.23
2017-07-04T04:37:28.649Z,21.13
2017-07-04T04:39:56.119Z,27.67
2017-07-04T04:42:24.346Z,22.77
2017-07-04T04:44:51.826Z,17.70
2017-07-04T04:47:19.410Z,24.43
2017-07-04T04:49:47.688Z,20.40
2017-07-04T04:52:15.942Z,21.37
2017-07-04T04:54:43.545Z,21.37
2017-07-04T04:57:11.062Z,26.33
2017-07-04T04:59:38.631Z,18.20
2017-07-04T05:02:06.090Z,18.90
2017-07-04T05:04:34.366Z,23.40
2017-07-04T05:07:02.606Z,15.67
2017-07-04T05:09:30.099Z,20.57
2017-07-04T05:11:58.422Z,27.20
2017-07-04T05:14:25.887Z,19.83
2017-07-04T05:16:53.375Z,19.20
2017-07-04T05:19:20.953Z,24.60
2017-07-04T05:21:48.469Z,18.37
2017-07-04T05:24:15.962Z,14.43
2017-07-04T05:26:44.237Z,13.30
2017-07-04T05:29:13.487Z,21.17
2017-07-04T05:31:40.947Z,20.60
2017-07-04T05:34:08.401Z,25.40
2017-07-04T05:36:36.170Z,15.87
2017-07-04T05:39:03.758Z,16.67
2017-07-04T05:41:31.236Z,14.57
2017-07-04T05:43:58.707Z,20.63
2017-07-04T05:46:26.234Z,17.07
2017-07-04T05:48:53.698Z,13.30
2017-07-04T05:51:21.206Z,16.00
2017-07-04T05:53:48.715Z,18.00
2017-07-04T05:56:16.949Z,13.87
2017-07-04T05:58:44.439Z,18.47
2017-07-04T06:01:11.911Z,12.30
2017-07-04T06:03:40.141Z,18.53
2017-07-04T06:06:07.600Z,7.43
2017-07-04T06:08:35.087Z,7.60
2017-07-04T06:11:02.549Z,10.47
2017-07-04T06:13:30.786Z,7.83
2017-07-04T06:15:58.258Z,17.00
2017-07-04T06:18:25.730Z,12.93
2017-07-04T06:20:53.294Z,9.73
2017-07-04T06:23:21.573Z,6.03
2017-07-04T06:25:49.031Z,7.17
2017-07-04T06:28:18.018Z,7.53
2017-07-04T06:30:45.473Z,12.63
2017-07-04T06:33:12.984Z,26.10
2017-07-04T06:35:40.442Z,32.30
2017-07-04T06:38:07.906Z,22.33
2017-07-04T06:40:35.367Z,17.30
2017-07-04T06:43:02.838Z,12.93
2017-07-04T06:45:30.326Z,13.43
2017-07-04T06:47:58.595Z,10.63
2017-07-04T06:50:26.163Z,15.23
2017-07-04T06:52:54.410Z,13.40
2017-07-04T06:55:21.994Z,9.63
2017-07-04T06:57:50.213Z,9.30
2017-07-04T07:00:22.942Z,7.57
2017-07-04T07:02:51.181Z,10.53
2017-07-04T07:05:18.642Z,7.70
2017-07-04T07:07:46.428Z,17.97
2017-07-04T07:10:13.998Z,12.50
2017-07-04T07:12:42.418Z,7.93
2017-07-04T07:15:09.922Z,10.17
2017-07-04T07:17:37.534Z,13.40
2017-07-04T07:20:05.170Z,20.57
2017-07-04T07:22:32.707Z,13.33
2017-07-04T07:25:00.281Z,13.93
2017-07-04T07:27:27.810Z,16.60
2017-07-04T07:29:55.395Z,13.70
2017-07-04T07:32:23.696Z,12.60
2017-07-04T07:34:51.192Z,13.80
2017-07-04T07:37:18.643Z,16.50
2017-07-04T07:39:46.112Z,15.97
2017-07-04T07:42:13.576Z,14.40
2017-07-04T07:44:41.048Z,18.47
2017-07-04T07:47:08.525Z,21.87
2017-07-04T07:49:36.734Z,16.07
2017-07-04T07:52:04.202Z,16.87
2017-07-04T07:54:31.664Z,13.87
2017-07-04T07:56:59.119Z,16.47
2017-07-04T07:59:26.590Z,15.73
2017-07-04T08:01:54.066Z,15.20
2017-07-04T08:04:21.512Z,7.27
2017-07-04T08:06:48.999Z,11.70
2017-07-04T08:09:16.482Z,10.37
2017-07-04T08:11:43.979Z,19.60
2017-07-04T08:14:11.431Z,14.00
2017-07-04T08:16:38.895Z,13.87
2017-07-04T08:19:06.360Z,8.97
2017-07-04T08:21:33.814Z,15.07
2017-07-04T08:24:01.322Z,12.70
2017-07-04T08:26:28.822Z,16.23
2017-07-04T08:28:56.252Z,8.03
2017-07-04T08:31:23.722Z,8.60
2017-07-04T08:33:51.174Z,13.20
2017-07-04T08:36:18.625Z,23.23
2017-07-04T08:38:46.099Z,16.00
2017-07-04T08:41:13.558Z,16.63
2017-07-04T08:43:41.015Z,26.43
2017-07-04T08:46:08.483Z,11.50
2017-07-04T08:48:35.970Z,18.70
2017-07-04T08:51:03.477Z,15.13
2017-07-04T08:53:31.245Z,27.50
2017-07-04T08:55:58.693Z,26.10
2017-07-04T08:58:26.170Z,20.40
2017-07-04T09:00:53.621Z,16.30
2017-07-04T09:03:21.124Z,20.23
2017-07-04T09:05:48.587Z,14.63
2017-07-04T09:08:16.095Z,9.00
2017-07-04T09:10:43.587Z,9.30
2017-07-04T09:13:11.066Z,12.10
2017-07-04T09:15:38.530Z,10.67
2017-07-04T09:18:05.990Z,8.63
2017-07-04T09:20:33.446Z,9.97
2017-07-04T09:23:00.914Z,6.33
2017-07-04T09:25:28.385Z,5.67
2017-07-04T09:27:55.847Z,9.33
2017-07-04T09:30:23.312Z,13.00
2017-07-04T09:32:50.770Z,12.83
2017-07-04T09:35:18.228Z,15.17
2017-07-04T09:37:46.487Z,10.87
2017-07-04T09:40:13.931Z,9.00
2017-07-04T09:42:41.388Z,6.53
2017-07-04T09:45:08.869Z,10.90
2017-07-04T09:47:37.092Z,6.60
2017-07-04T09:50:04.554Z,7.17
2017-07-04T09:52:32.030Z,10.13
2017-07-04T09:54:59.486Z,9.60
2017-07-04T09:57:26.944Z,8.03
2017-07-04T09:59:54.419Z,5.97
2017-07-04T10:02:21.878Z,5.43
2017-07-04T10:04:50.115Z,5.87
2017-07-04T10:07:17.575Z,5.83
2017-07-04T10:09:45.054Z,3.80
2017-07-04T10:12:13.332Z,6.90
2017-07-04T10:14:40.782Z,4.30
2017-07-04T10:17:08.261Z,3.77
2017-07-04T10:19:35.730Z,11.60
2017-07-04T10:22:03.966Z,6.30
2017-07-04T10:24:31.436Z,9.97
2017-07-04T10:26:58.895Z,5.10
2017-07-04T10:29:26.374Z,6.93
2017-07-04T10:31:53.939Z,5.17
2017-07-04T10:34:21.402Z,8.23
2017-07-04T10:36:48.978Z,4.57
2017-07-04T10:39:16.488Z,4.80
2017-07-04T10:41:43.968Z,6.90
2017-07-04T10:44:11.430Z,7.03
2017-07-04T10:46:38.976Z,7.50
2017-07-04T10:49:07.218Z,6.53
2017-07-04T10:51:34.677Z,6.03
2017-07-04T10:54:02.146Z,5.93
2017-07-04T10:56:29.609Z,6.93
2017-07-04T10:58:57.163Z,2.47
2017-07-04T11:01:25.397Z,5.10
2017-07-04T11:03:52.866Z,3.90
2017-07-04T11:06:20.340Z,3.73
2017-07-04T11:08:47.794Z,3.83
2017-07-04T11:11:15.259Z,4.17
2017-07-04T11:13:42.738Z,5.83
2017-07-04T11:16:10.998Z,3.80
2017-07-04T11:18:39.230Z,6.70
2017-07-04T11:21:06.685Z,4.03
2017-07-04T11:23:34.130Z,5.00
2017-07-04T11:26:01.648Z,5.80
2017-07-04T11:28:29.920Z,2.97
2017-07-04T11:30:58.190Z,5.43
2017-07-04T11:33:26.457Z,5.90
2017-07-04T11:35:53.926Z,4.20
2017-07-04T11:38:22.156Z,5.50
2017-07-04T11:40:49.650Z,5.27
2017-07-04T11:43:17.118Z,4.13
2017-07-04T11:45:45.643Z,6.97
2017-07-04T11:48:13.102Z,6.87
2017-07-04T11:50:40.559Z,4.70
2017-07-04T11:53:08.047Z,3.63
2017-07-04T11:55:35.557Z,3.17
2017-07-04T11:58:03.011Z,7.47
2017-07-04T12:00:30.534Z,4.90
2017-07-04T12:02:57.987Z,4.37
2017-07-04T12:05:26.214Z,4.23
2017-07-04T12:07:53.703Z,4.40
2017-07-04T12:10:21.162Z,6.50
2017-07-04T12:12:48.632Z,3.87
2017-07-04T12:15:16.087Z,6.73
2017-07-04T12:17:43.570Z,5.93
2017-07-04T12:20:11.034Z,4.27
2017-07-04T12:22:38.512Z,9.60
2017-07-04T12:25:06.379Z,4.80
2017-07-04T12:27:34.196Z,6.83
2017-07-04T12:30:02.423Z,3.77
2017-07-04T12:32:30.265Z,5.60
2017-07-04T12:35:37.142Z,4.17
2017-07-04T12:38:04.876Z,3.53
2017-07-04T12:40:32.344Z,7.40
2017-07-04T12:42:59.806Z,5.03
2017-07-04T12:45:28.045Z,6.73
2017-07-04T12:47:55.667Z,7.50
2017-07-04T12:50:27.183Z,5.27
2017-07-04T12:52:54.730Z,3.53
2017-07-04T12:55:22.204Z,5.07
2017-07-04T12:57:50.514Z,5.90
2017-07-04T13:00:18.631Z,5.53
2017-07-04T13:02:46.103Z,13.47
2017-07-04T13:05:14.360Z,6.20
2017-07-04T13:07:41.824Z,6.00
2017-07-04T13:10:09.274Z,5.37
2017-07-04T13:12:36.755Z,5.13
2017-07-04T13:15:05.421Z,4.13
2017-07-04T13:17:32.916Z,5.00
2017-07-04T13:20:00.390Z,7.87
2017-07-04T13:22:27.838Z,7.83
2017-07-04T13:24:55.348Z,8.40
2017-07-04T13:27:22.859Z,5.77
2017-07-04T13:29:50.359Z,4.03
2017-07-04T13:32:17.818Z,5.00
2017-07-04T13:34:45.287Z,7.70
2017-07-04T13:37:13.516Z,3.00
2017-07-04T13:39:40.970Z,3.63
2017-07-04T13:42:08.441Z,4.37
2017-07-04T13:44:35.978Z,4.83
2017-07-04T13:47:03.473Z,6.80
2017-07-04T13:49:30.934Z,3.50
2017-07-04T13:51:58.395Z,4.50
2017-07-04T13:54:25.850Z,3.63
2017-07-04T13:56:53.338Z,5.37
2017-07-04T13:59:20.786Z,6.63
2017-07-04T14:01:49.015Z,5.87
2017-07-04T14:04:16.497Z,4.93
2017-07-04T14:06:43.982Z,10.03
2017-07-04T14:09:11.480Z,4.40
2017-07-04T14:11:38.946Z,5.93
2017-07-04T14:14:06.405Z,8.87
2017-07-04T14:16:33.903Z,6.83
2017-07-04T14:19:02.123Z,6.00
2017-07-04T14:21:29.571Z,6.30
2017-07-04T14:23:57.043Z,10.20
2017-07-04T14:26:24.531Z,8.90
2017-07-04T14:28:51.998Z,10.27
2017-07-04T14:31:19.471Z,5.53
2017-07-04T14:33:46.965Z,6.97
2017-07-04T14:36:14.426Z,6.40
2017-07-04T14:38:41.880Z,3.40
2017-07-04T14:41:09.347Z,5.40
2017-07-04T14:43:36.810Z,2.70
2017-07-04T14:46:04.277Z,3.50
2017-07-04T14:48:31.745Z,3.90
2017-07-04T14:50:59.277Z,3.90
2017-07-04T14:53:26.729Z,5.33
2017-07-04T14:55:54.192Z,3.93
2017-07-04T14:58:21.652Z,5.67
2017-07-04T15:00:49.127Z,3.33
2017-07-04T15:03:16.592Z,5.23
2017-07-04T15:05:44.200Z,3.97
2017-07-04T15:08:11.651Z,6.33
2017-07-04T15:10:39.450Z,3.20
2017-07-04T15:13:06.911Z,3.47
2017-07-04T15:15:34.376Z,4.30
2017-07-04T15:18:02.138Z,5.33
2017-07-04T15:20:29.595Z,3.90
2017-07-04T15:22:57.814Z,6.50
2017-07-04T15:25:25.712Z,2.70
2017-07-04T15:27:53.174Z,6.90
2017-07-04T15:30:20.623Z,7.10
2017-07-04T15:32:48.107Z,4.73
2017-07-04T15:35:15.801Z,5.07
2017-07-04T15:37:43.261Z,3.60
2017-07-04T15:40:10.739Z,6.30
2017-07-04T15:42:38.196Z,4.00
2017-07-04T15:45:05.642Z,7.80
2017-07-04T15:47:33.213Z,7.60
2017-07-04T15:50:00.673Z,8.63
2017-07-04T15:52:28.123Z,4.03
2017-07-04T15:54:55.591Z,9.57
2017-07-04T15:57:23.114Z,9.60
2017-07-04T15:59:50.591Z,5.37
2017-07-04T16:02:18.082Z,4.87
2017-07-04T16:04:45.539Z,5.53
2017-07-04T16:07:13.005Z,5.33
2017-07-04T16:09:40.774Z,4.27
2017-07-04T16:12:08.476Z,9.27
2017-07-04T16:14:35.937Z,4.20
2017-07-04T16:17:03.490Z,4.43
2017-07-04T16:19:30.955Z,8.77
2017-07-04T16:21:58.485Z,7.87
2017-07-04T16:24:26.711Z,4.53
2017-07-04T16:26:54.171Z,3.57
2017-07-04T16:29:21.640Z,6.10
2017-07-04T16:31:49.112Z,3.90
2017-07-04T16:34:16.582Z,6.63
2017-07-04T16:36:44.019Z,2.10
2017-07-04T16:39:11.495Z,4.27
2017-07-04T16:41:38.948Z,3.70
2017-07-04T16:44:07.170Z,2.43
2017-07-04T16:46:34.695Z,3.67
2017-07-04T16:49:02.178Z,5.93
2017-07-04T16:51:29.643Z,2.70
2017-07-04T16:53:57.184Z,4.87
2017-07-04T16:56:24.622Z,2.33
2017-07-04T16:58:52.107Z,4.03
2017-07-04T17:01:19.585Z,3.37
2017-07-04T17:03:47.039Z,5.63
2017-07-04T17:06:14.495Z,4.30
2017-07-04T17:08:42.247Z,4.57
2017-07-04T17:11:09.726Z,4.50
2017-07-04T17:13:37.179Z,3.50
2017-07-04T17:16:04.643Z,3.43
2017-07-04T17:18:32.107Z,4.57
2017-07-04T17:20:59.552Z,6.73
2017-07-04T17:23:27.077Z,4.70
2017-07-04T17:25:54.580Z,3.70
2017-07-04T17:28:22.955Z,4.20
2017-07-04T17:30:50.429Z,3.53
2017-07-04T17:33:17.887Z,3.40
2017-07-04T17:35:45.383Z,7.00
2017-07-04T17:38:13.105Z,2.07
2017-07-04T17:40:40.550Z,3.83
2017-07-04T17:43:08.010Z,6.00
2017-07-04T17:45:35.462Z,5.20
2017-07-04T17:48:02.938Z,1.90
2017-07-04T17:50:30.403Z,2.50
2017-07-04T17:55:31.715Z,2.20
2017-07-04T17:57:59.184Z,4.67
2017-07-04T18:00:26.639Z,6.67
2017-07-04T18:02:54.109Z,4.90
2017-07-04T18:05:21.562Z,7.00
2017-07-04T18:07:49.023Z,2.40
2017-07-04T18:10:17.602Z,2.50
2017-07-04T18:12:45.055Z,3.33
2017-07-04T18:15:12.537Z,3.73
2017-07-04T18:17:40.272Z,1.93
2017-07-04T18:20:07.727Z,3.27
2017-07-04T18:22:35.260Z,4.80
2017-07-04T18:25:02.734Z,1.53
2017-07-04T18:27:30.190Z,4.90
2017-07-04T18:29:57.658Z,2.30
2017-07-04T18:32:25.113Z,5.17
2017-07-04T18:34:53.492Z,6.50
2017-07-04T18:37:20.956Z,3.17
2017-07-04T18:39:48.714Z,2.27
2017-07-04T18:42:16.171Z,3.73
2017-07-04T18:44:43.646Z,3.33
2017-07-04T18:47:11.111Z,1.80
2017-07-04T18:49:38.565Z,2.77
2017-07-04T18:52:06.068Z,1.93
2017-07-04T18:54:33.562Z,1.57
2017-07-04T18:57:01.014Z,2.93
2017-07-04T18:59:29.287Z,5.77
2017-07-04T19:01:56.759Z,1.80
2017-07-04T19:04:24.213Z,2.27
2017-07-04T19:06:51.678Z,2.93
2017-07-04T19:09:19.152Z,2.23
2017-07-04T19:11:46.603Z,6.40
2017-07-04T19:14:14.076Z,4.20
2017-07-04T19:16:41.545Z,7.20
2017-07-04T19:19:09.095Z,6.10
2017-07-04T19:21:36.548Z,4.57
2017-07-04T19:24:04.007Z,7.47
2017-07-04T19:26:31.468Z,5.00
2017-07-04T19:28:58.930Z,6.30
2017-07-04T19:31:26.485Z,5.93
2017-07-04T19:33:53.950Z,4.03
2017-07-04T19:36:21.406Z,2.30
2017-07-04T19:38:48.943Z,5.03
2017-07-04T19:41:16.450Z,4.73
2017-07-04T19:43:45.202Z,7.80
2017-07-04T19:46:12.679Z,2.80
2017-07-04T19:48:41.146Z,7.30
2017-07-04T19:51:08.763Z,5.97
2017-07-04T19:53:36.242Z,3.70
2017-07-04T19:56:03.808Z,8.67
2017-07-04T19:58:31.255Z,5.03
2017-07-04T20:00:58.747Z,3.13
2017-07-04T20:03:26.240Z,4.47
2017-07-04T20:05:53.824Z,3.47
2017-07-04T20:08:21.288Z,2.50
2017-07-04T20:10:48.790Z,8.80
2017-07-04T20:13:16.245Z,4.77
2017-07-04T20:15:43.727Z,4.50
2017-07-04T20:18:11.198Z,6.23
2017-07-04T20:20:39.011Z,5.07
2017-07-04T20:23:06.978Z,2.43
2017-07-04T20:25:38.620Z,12.07
2017-07-04T20:28:07.630Z,3.43
2017-07-04T20:30:35.202Z,4.30
2017-07-04T20:33:02.812Z,6.80
2017-07-04T20:35:30.271Z,3.07
2017-07-04T20:37:59.025Z,2.30
2017-07-04T20:40:26.524Z,3.17
2017-07-04T20:42:53.980Z,8.40
2017-07-04T20:45:21.703Z,3.70
2017-07-04T20:47:49.806Z,2.40
2017-07-04T20:50:17.246Z,4.40
2017-07-04T20:52:44.857Z,3.77
2017-07-04T20:55:12.314Z,5.13
2017-07-04T20:57:39.760Z,9.10
2017-07-04T21:00:07.214Z,6.50
2017-07-04T21:02:34.665Z,3.97
2017-07-04T21:05:02.110Z,2.93
2017-07-04T21:07:29.616Z,3.87
2017-07-04T21:09:57.960Z,7.40
2017-07-04T21:12:26.003Z,5.23
2017-07-04T21:14:53.478Z,5.00
2017-07-04T21:17:20.995Z,5.87
2017-07-04T21:19:49.216Z,3.03
2017-07-04T21:22:16.678Z,9.47
2017-07-04T21:24:44.143Z,5.03
2017-07-04T21:27:11.598Z,4.57
2017-07-04T21:29:39.107Z,2.87
2017-07-04T21:32:06.587Z,3.73
2017-07-04T21:34:34.078Z,3.40
2017-07-04T21:37:01.591Z,3.40
2017-07-04T21:39:29.104Z,2.90
2017-07-04T21:41:56.563Z,5.60
2017-07-04T21:44:24.063Z,5.50
2017-07-04T21:46:51.512Z,5.67
2017-07-04T21:49:18.986Z,3.80
2017-07-04T21:51:46.496Z,3.50
2017-07-04T21:54:14.051Z,3.00
2017-07-04T21:56:42.273Z,6.77
2017-07-04T21:59:09.764Z,4.43
2017-07-04T22:01:37.232Z,5.40
2017-07-04T22:04:04.707Z,2.60
2017-07-04T22:06:35.896Z,2.93
2017-07-04T22:09:03.358Z,7.20
2017-07-04T22:11:31.718Z,2.40
2017-07-04T22:13:59.295Z,2.10
2017-07-04T22:16:28.359Z,2.60
2017-07-04T22:18:55.832Z,4.90
2017-07-04T22:21:23.304Z,2.70
2017-07-04T22:23:50.769Z,8.60
2017-07-04T22:26:18.227Z,3.73
2017-07-04T22:28:45.686Z,6.33
2017-07-04T22:31:13.213Z,3.33
2017-07-04T22:33:40.657Z,2.93
2017-07-04T22:36:08.110Z,5.10
2017-07-04T22:38:35.593Z,2.70
2017-07-04T22:41:03.060Z,4.47
2017-07-04T22:43:30.498Z,8.50
2017-07-04T22:45:57.976Z,3.20
2017-07-04T22:48:25.447Z,3.23
2017-07-04T22:50:52.920Z,2.87
2017-07-04T22:53:20.671Z,3.00
2017-07-04T22:55:48.140Z,5.00
2017-07-04T22:58:15.642Z,7.13
2017-07-04T23:00:43.111Z,3.40
2017-07-04T23:03:10.606Z,4.50
2017-07-04T23:05:38.060Z,5.23
2017-07-04T23:08:05.531Z,4.57
2017-07-04T23:10:32.994Z,7.07
2017-07-04T23:13:01.221Z,3.83
2017-07-04T23:15:28.682Z,3.57
2017-07-04T23:17:56.138Z,5.50
2017-07-04T23:20:23.626Z,7.60
2017-07-04T23:22:51.105Z,3.23
2017-07-04T23:25:18.558Z,4.57
2017-07-04T23:27:46.015Z,3.70
2017-07-04T23:30:13.755Z,4.53
2017-07-04T23:32:41.971Z,3.80
2017-07-04T23:35:09.438Z,4.70
2017-07-04T23:37:36.956Z,5.53
2017-07-04T23:40:04.407Z,3.43
2017-07-04T23:42:31.921Z,6.40
2017-07-04T23:44:59.386Z,4.40
2017-07-04T23:47:26.838Z,4.90
2017-07-04T23:49:54.331Z,2.50
2017-07-04T23:52:21.789Z,3.03
2017-07-04T23:54:49.262Z,3.30
2017-07-04T23:57:16.731Z,3.53
2017-07-04T23:59:44.201Z,3.80
